Time;durP1;ratioP1;P1;durP2;ratioP2;P2;SDS_P1;SDS_P2;PMS_P1;PMS_P2;Temp;Humidity;BMP_temperature;BMP_pressure;BME280_temperature;BME280_humidity;BME280_pressure;Samples;Min_cycle;Max_cycle;Signal;HPM_P1;HPM_P2
2021/10/13 00:01:24;;;;;;;1.50;0.20;;;26.60;43.50;;;;;;4914421;29;20170;-55
2021/10/13 00:03:51;;;;;;;1.75;0.10;;;26.60;43.50;;;;;;4914769;29;20062;-56
2021/10/13 00:06:18;;;;;;;2.22;0.20;;;26.60;43.40;;;;;;4913060;29;20511;-51
2021/10/13 00:08:45;;;;;;;0.65;0.30;;;26.70;43.40;;;;;;4914015;29;20040;-50
2021/10/13 00:11:14;;;;;;;1.55;0.20;;;26.70;43.40;;;;;;4914425;29;20063;-53
2021/10/13 00:13:41;;;;;;;1.58;0.25;;;26.70;43.40;;;;;;4919494;29;20039;-54
2021/10/13 00:16:08;;;;;;;4.88;0.30;;;26.70;43.30;;;;;;4925508;29;20043;-54
2021/10/13 00:18:35;;;;;;;1.77;0.32;;;26.70;43.90;;;;;;4914703;29;20575;-50
2021/10/13 00:21:02;;;;;;;1.15;0.20;;;26.70;43.30;;;;;;4912147;29;20051;-54
2021/10/13 00:23:29;;;;;;;1.05;0.20;;;26.70;43.30;;;;;;4923030;29;20595;-54
2021/10/13 00:25:56;;;;;;;1.15;0.22;;;26.70;43.30;;;;;;4918566;29;20040;-53
2021/10/13 00:28:24;;;;;;;5.78;0.57;;;26.70;43.30;;;;;;4915370;29;20050;-53
2021/10/13 00:30:51;;;;;;;1.05;0.32;;;26.70;43.20;;;;;;4912556;29;20050;-55
2021/10/13 00:33:18;;;;;;;0.63;0.30;;;26.70;43.30;;;;;;4927769;29;20035;-54
2021/10/13 00:35:45;;;;;;;1.85;0.65;;;26.70;43.30;;;;;;4913836;29;20052;-54
2021/10/13 00:38:12;;;;;;;2.33;0.30;;;26.70;43.30;;;;;;4914567;29;20043;-56
2021/10/13 00:40:39;;;;;;;2.63;0.50;;;26.80;43.30;;;;;;4914561;29;20044;-55
2021/10/13 00:43:06;;;;;;;2.25;0.38;;;26.80;43.30;;;;;;4914037;29;20036;-55
2021/10/13 00:45:35;;;;;;;1.65;0.10;;;26.80;43.90;;;;;;4897773;29;20042;-56
2021/10/13 00:48:02;;;;;;;0.80;0.17;;;26.80;43.30;;;;;;4912142;29;20051;-56
2021/10/13 00:50:29;;;;;;;2.05;0.65;;;26.80;43.20;;;;;;4915383;29;20056;-53
2021/10/13 00:52:56;;;;;;;0.70;0.30;;;26.80;43.10;;;;;;4919550;29;20065;-56
2021/10/13 00:55:23;;;;;;;0.30;0.20;;;26.80;43.00;;;;;;4923384;29;20508;-54
2021/10/13 00:57:51;;;;;;;0.40;0.10;;;26.80;43.00;;;;;;4914532;29;20517;-54
2021/10/13 01:00:21;;;;;;;1.50;0.30;;;26.80;42.90;;;;;;4916591;29;20092;-54
2021/10/13 01:02:59;;;;;;;0.52;0.17;;;26.80;42.80;;;;;;4917081;29;20063;-54
2021/10/13 01:05:42;;;;;;;1.50;0.20;;;26.90;42.90;;;;;;4918081;29;20135;-56
2021/10/13 01:08:15;;;;;;;1.27;0.52;;;26.80;42.70;;;;;;4918552;29;20048;-54
2021/10/13 01:10:54;;;;;;;0.80;0.10;;;26.80;42.70;;;;;;4918332;29;20048;-54
2021/10/13 01:13:36;;;;;;;0.20;0.10;;;26.80;42.70;;;;;;4917730;29;20052;-53
2021/10/13 01:16:11;;;;;;;0.90;0.30;;;26.80;42.70;;;;;;4918519;29;20089;-55
2021/10/13 01:18:43;;;;;;;;;;;26.80;42.60;;;;;;4918680;29;20066;-56
2021/10/13 01:21:18;;;;;;;0.30;0.20;;;26.70;42.40;;;;;;4932654;29;19984;-56
2021/10/13 01:24:22;;;;;;;0.30;0.10;;;26.70;42.60;;;;;;4928374;29;20070;-57
2021/10/13 01:27:00;;;;;;;0.82;0.15;;;26.80;42.50;;;;;;4915056;29;20052;-55
2021/10/13 01:29:31;;;;;;;1.08;0.10;;;26.80;42.60;;;;;;4916442;29;20520;-54
2021/10/13 01:32:02;;;;;;;0.28;0.10;;;26.80;42.50;;;;;;4917761;29;20040;-54
2021/10/13 01:34:33;;;;;;;1.00;0.20;;;26.80;42.40;;;;;;4917834;29;20041;-55
2021/10/13 01:37:04;;;;;;;0.20;0.20;;;26.80;42.40;;;;;;4922684;29;20115;-48
2021/10/13 01:39:33;;;;;;;3.65;0.95;;;26.70;42.20;;;;;;4929787;29;20163;-48
2021/10/13 01:42:04;;;;;;;1.17;0.30;;;26.60;42.30;;;;;;4929934;29;20066;-50
2021/10/13 01:44:35;;;;;;;0.50;0.20;;;26.40;42.50;;;;;;4919086;29;20055;-52
2021/10/13 01:47:04;;;;;;;0.10;0.10;;;26.30;42.90;;;;;;4918328;29;20036;-51
2021/10/13 01:49:33;;;;;;;0.20;0.10;;;26.10;43.20;;;;;;4917338;29;20040;-49
2021/10/13 01:52:01;;;;;;;0.10;0.10;;;25.90;43.40;;;;;;4917541;29;20068;-49
2021/10/13 01:54:29;;;;;;;0.55;0.10;;;25.70;43.70;;;;;;4930466;29;20044;-49
2021/10/13 01:56:58;;;;;;;0.38;0.13;;;25.50;43.80;;;;;;4909013;29;20052;-51
2021/10/13 01:59:27;;;;;;;0.52;0.10;;;25.30;43.90;;;;;;4918110;29;20048;-49
2021/10/13 02:01:57;;;;;;;0.55;0.55;;;25.20;44.10;;;;;;4917887;29;20082;-52
2021/10/13 02:04:26;;;;;;;0.20;0.10;;;25.10;44.20;;;;;;4917213;29;20039;-53
2021/10/13 02:06:54;;;;;;;1.85;0.10;;;25.00;45.00;;;;;;4917405;29;20055;-52
2021/10/13 02:09:24;;;;;;;1.08;0.10;;;24.90;44.50;;;;;;4915954;29;20040;-49
2021/10/13 02:11:54;;;;;;;4.18;0.10;;;24.70;44.70;;;;;;4914780;29;20412;-53
2021/10/13 02:14:22;;;;;;;0.65;0.10;;;24.60;44.80;;;;;;4916760;29;20513;-49
2021/10/13 02:16:53;;;;;;;0.70;0.40;;;24.50;44.90;;;;;;4917234;29;20044;-49
2021/10/13 02:19:25;;;;;;;0.68;0.10;;;24.40;45.00;;;;;;4917190;29;20054;-49
2021/10/13 02:21:55;;;;;;;1.13;0.10;;;24.40;45.30;;;;;;4916985;29;20046;-51
2021/10/13 02:24:25;;;;;;;1.52;0.38;;;24.20;46.10;;;;;;4929253;29;20421;-50
2021/10/13 02:26:59;;;;;;;0.63;0.20;;;24.10;45.70;;;;;;4914963;29;20044;-48
2021/10/13 02:29:26;;;;;;;0.30;0.10;;;24.00;45.90;;;;;;4916798;29;20695;-46
2021/10/13 02:31:53;;;;;;;1.58;0.43;;;23.90;46.10;;;;;;4916863;29;20047;-46
2021/10/13 02:34:22;;;;;;;1.50;0.20;;;23.90;46.50;;;;;;4904970;29;20052;-46
2021/10/13 02:36:49;;;;;;;1.42;0.10;;;23.80;46.60;;;;;;4929882;29;20642;-48
2021/10/13 02:39:16;;;;;;;2.33;0.85;;;23.70;46.80;;;;;;4914529;29;20044;-47
2021/10/13 02:41:43;;;;;;;0.10;0.10;;;23.60;46.90;;;;;;4916032;29;20596;-47
2021/10/13 02:44:10;;;;;;;0.10;0.10;;;23.60;47.10;;;;;;4916624;29;20127;-48
2021/10/13 02:46:45;;;;;;;1.65;0.10;;;23.50;47.20;;;;;;4916669;29;20044;-47
2021/10/13 02:49:19;;;;;;;0.20;0.10;;;23.40;47.30;;;;;;4916497;29;20460;-48
2021/10/13 02:51:56;;;;;;;1.15;0.32;;;23.30;47.50;;;;;;4914612;29;20040;-47
2021/10/13 02:54:30;;;;;;;0.93;0.10;;;23.30;47.70;;;;;;4929543;29;20072;-49
2021/10/13 02:57:00;;;;;;;1.65;0.10;;;23.20;47.80;;;;;;4913981;29;20044;-47
2021/10/13 02:59:34;;;;;;;0.75;0.10;;;23.20;47.90;;;;;;4916477;29;20051;-48
2021/10/13 03:02:04;;;;;;;0.65;0.10;;;23.10;48.10;;;;;;4916530;29;20039;-49
2021/10/13 03:04:36;;;;;;;0.20;0.10;;;23.10;48.20;;;;;;4916359;29;20124;-48
2021/10/13 03:07:07;;;;;;;0.95;0.13;;;23.00;48.90;;;;;;4916462;29;20115;-47
2021/10/13 03:09:39;;;;;;;0.30;0.20;;;23.00;48.50;;;;;;4916207;29;20046;-49
2021/10/13 03:12:09;;;;;;;0.20;0.20;;;22.90;48.60;;;;;;4913254;29;20055;-49
2021/10/13 03:14:38;;;;;;;0.20;0.10;;;22.80;48.60;;;;;;4916232;29;20068;-53
2021/10/13 03:17:06;;;;;;;0.47;0.10;;;22.80;48.70;;;;;;4916081;29;20143;-51
2021/10/13 03:19:36;;;;;;;4.00;0.10;;;22.70;48.80;;;;;;4920190;29;20041;-48
2021/10/13 03:22:06;;;;;;;0.20;0.10;;;22.70;48.90;;;;;;4915213;29;20040;-48
2021/10/13 03:24:33;;;;;;;0.40;0.10;;;22.70;49.00;;;;;;4929230;29;20059;-47
2021/10/13 03:27:01;;;;;;;1.10;0.45;;;22.60;49.00;;;;;;4928108;29;20154;-47
2021/10/13 03:29:28;;;;;;;0.10;0.10;;;22.60;49.20;;;;;;4916410;29;20087;-49
2021/10/13 03:31:55;;;;;;;0.50;0.10;;;22.60;49.20;;;;;;4916579;29;20040;-52
2021/10/13 03:34:22;;;;;;;0.82;0.10;;;22.60;49.20;;;;;;4915969;29;20048;-52
2021/10/13 03:36:50;;;;;;;0.45;0.13;;;22.50;49.20;;;;;;4915711;29;20496;-49
2021/10/13 03:39:19;;;;;;;2.35;0.10;;;22.50;49.30;;;;;;4913684;29;20048;-48
2021/10/13 03:41:46;;;;;;;1.60;0.10;;;22.50;49.40;;;;;;4914538;29;20044;-50
2021/10/13 03:44:13;;;;;;;0.60;0.10;;;22.40;49.40;;;;;;4915495;29;20044;-50
2021/10/13 03:46:40;;;;;;;0.70;0.17;;;22.40;49.40;;;;;;4915644;29;20130;-47
2021/10/13 03:49:08;;;;;;;0.38;0.05;;;22.30;49.40;;;;;;4916012;29;20449;-50
2021/10/13 03:51:35;;;;;;;0.95;0.10;;;22.40;49.50;;;;;;4915121;29;20073;-51
2021/10/13 03:54:02;;;;;;;0.40;0.10;;;22.30;49.50;;;;;;4926688;29;20043;-51
2021/10/13 03:56:31;;;;;;;1.15;0.10;;;22.30;49.50;;;;;;4916011;29;20511;-51
2021/10/13 03:58:59;;;;;;;0.30;0.22;;;22.30;49.60;;;;;;4915318;29;20592;-48
2021/10/13 04:01:26;;;;;;;0.32;0.10;;;22.20;49.50;;;;;;4915493;29;20048;-53
2021/10/13 04:03:53;;;;;;;0.85;0.10;;;22.20;49.50;;;;;;4915513;29;20047;-48
2021/10/13 04:06:20;;;;;;;1.55;0.10;;;22.20;49.50;;;;;;4913306;29;20056;-47
2021/10/13 04:08:47;;;;;;;1.08;0.10;;;22.20;49.50;;;;;;4914298;29;20062;-48
2021/10/13 04:11:15;;;;;;;0.47;0.10;;;22.20;49.60;;;;;;4915758;29;20048;-49
2021/10/13 04:13:44;;;;;;;0.73;0.28;;;22.20;49.60;;;;;;4915004;29;20040;-49
2021/10/13 04:16:11;;;;;;;0.90;0.05;;;22.10;49.60;;;;;;4914817;29;20048;-47
2021/10/13 04:18:38;;;;;;;0.40;0.10;;;22.00;49.60;;;;;;4915163;29;20047;-49
2021/10/13 04:21:05;;;;;;;0.13;0.10;;;22.10;49.70;;;;;;4917585;29;20134;-51
2021/10/13 04:23:32;;;;;;;0.25;0.10;;;22.10;49.80;;;;;;4928088;29;20062;-49
2021/10/13 04:25:59;;;;;;;3.88;0.10;;;22.00;49.80;;;;;;4918889;29;20047;-49
2021/10/13 04:28:26;;;;;;;1.35;0.10;;;22.00;49.90;;;;;;4915299;29;20052;-49
2021/10/13 04:30:54;;;;;;;0.60;0.10;;;22.00;50.00;;;;;;4918528;29;20048;-48
2021/10/13 04:33:21;;;;;;;2.50;0.10;;;22.00;50.00;;;;;;4912936;29;20044;-48
2021/10/13 04:35:48;;;;;;;0.35;0.10;;;22.00;50.00;;;;;;4912053;29;20052;-52
2021/10/13 04:38:15;;;;;;;0.47;0.10;;;22.00;50.00;;;;;;4914374;29;20040;-50
2021/10/13 04:40:42;;;;;;;4.72;0.30;;;22.00;50.00;;;;;;4914649;29;20032;-49
2021/10/13 04:43:09;;;;;;;0.10;0.10;;;22.00;50.10;;;;;;4914699;29;20063;-50
2021/10/13 04:45:36;;;;;;;0.32;0.20;;;21.90;50.10;;;;;;4913082;29;20429;-47
2021/10/13 04:48:05;;;;;;;2.05;0.17;;;21.90;50.10;;;;;;4930818;29;20043;-48
2021/10/13 04:50:32;;;;;;;0.90;0.10;;;21.90;50.10;;;;;;4918747;29;20050;-47
2021/10/13 04:52:59;;;;;;;0.52;0.10;;;21.90;50.10;;;;;;4923617;29;20048;-47
2021/10/13 04:55:26;;;;;;;0.75;0.10;;;21.90;50.10;;;;;;4922687;29;20044;-47
2021/10/13 04:57:53;;;;;;;0.52;0.10;;;21.90;50.20;;;;;;4914833;29;20044;-48
2021/10/13 05:00:20;;;;;;;0.90;0.10;;;21.90;50.20;;;;;;4911169;29;20139;-50
2021/10/13 05:02:47;;;;;;;0.25;0.10;;;21.90;50.30;;;;;;4930195;29;20044;-48
2021/10/13 05:05:16;;;;;;;1.08;0.47;;;21.80;50.20;;;;;;4915812;29;20054;-49
2021/10/13 05:07:43;;;;;;;1.60;0.17;;;21.80;50.20;;;;;;4914579;29;20162;-48
2021/10/13 05:10:10;;;;;;;1.02;0.22;;;21.80;50.20;;;;;;4914513;29;20059;-47
2021/10/13 05:12:37;;;;;;;1.38;0.20;;;21.80;50.20;;;;;;4929067;29;20043;-49
2021/10/13 05:15:05;;;;;;;1.38;0.40;;;21.80;50.20;;;;;;4932188;29;20063;-47
2021/10/13 05:17:32;;;;;;;0.35;0.10;;;21.80;50.20;;;;;;4916026;29;20047;-46
2021/10/13 05:19:59;;;;;;;0.57;0.15;;;21.80;50.20;;;;;;4923860;29;20055;-47
2021/10/13 05:22:27;;;;;;;1.15;0.10;;;21.70;50.10;;;;;;4914372;29;20603;-48
2021/10/13 05:24:54;;;;;;;1.02;0.10;;;21.80;50.20;;;;;;4926709;29;20056;-49
2021/10/13 05:27:21;;;;;;;2.95;0.38;;;21.70;50.20;;;;;;4911521;29;20421;-47
2021/10/13 05:29:48;;;;;;;0.88;0.17;;;21.70;50.10;;;;;;4912020;29;20044;-49
2021/10/13 05:32:15;;;;;;;0.32;0.32;;;21.70;50.20;;;;;;4913946;29;20056;-48
2021/10/13 05:34:42;;;;;;;1.05;0.20;;;21.70;50.20;;;;;;4914147;29;20493;-47
2021/10/13 05:37:09;;;;;;;1.52;0.10;;;21.70;50.20;;;;;;4926129;29;20118;-47
2021/10/13 05:39:38;;;;;;;0.35;0.20;;;21.70;50.20;;;;;;4926489;29;20044;-48
2021/10/13 05:42:05;;;;;;;1.58;0.20;;;21.70;50.20;;;;;;4911308;29;20052;-47
2021/10/13 05:44:32;;;;;;;1.10;0.75;;;21.70;50.20;;;;;;4914533;29;20052;-47
2021/10/13 05:46:59;;;;;;;0.73;0.22;;;21.70;50.80;;;;;;4917430;29;20067;-49
2021/10/13 05:49:26;;;;;;;0.95;0.22;;;21.70;50.20;;;;;;4917172;29;20054;-49
2021/10/13 05:51:53;;;;;;;4.40;0.10;;;21.70;50.20;;;;;;4924210;29;20056;-52
2021/10/13 05:54:20;;;;;;;0.20;0.10;;;21.60;50.10;;;;;;4929227;29;20130;-49
2021/10/13 05:56:49;;;;;;;2.30;0.10;;;21.60;50.10;;;;;;4927226;29;20048;-52
2021/10/13 05:59:16;;;;;;;1.05;0.10;;;21.60;50.20;;;;;;4927475;29;20532;-51
2021/10/13 06:01:43;;;;;;;0.47;0.10;;;21.60;50.20;;;;;;4925655;29;20095;-49
2021/10/13 06:04:10;;;;;;;0.20;0.10;;;21.60;50.20;;;;;;4929213;29;20048;-48
2021/10/13 06:06:38;;;;;;;1.88;0.52;;;21.60;50.20;;;;;;4930890;29;20605;-51
2021/10/13 06:09:05;;;;;;;1.55;0.10;;;21.60;50.20;;;;;;4930836;29;20039;-51
2021/10/13 06:11:32;;;;;;;2.92;0.28;;;21.60;50.30;;;;;;4931501;29;20047;-49
2021/10/13 06:14:00;;;;;;;0.35;0.20;;;21.60;50.80;;;;;;4923407;29;20044;-48
2021/10/13 06:16:27;;;;;;;0.35;0.10;;;21.60;50.30;;;;;;4928065;29;20043;-49
2021/10/13 06:18:54;;;;;;;7.25;0.50;;;21.60;51.10;;;;;;4928839;29;20039;-48
2021/10/13 06:21:22;;;;;;;3.95;0.30;;;21.60;50.60;;;;;;4923043;29;20044;-48
2021/10/13 06:23:50;;;;;;;3.10;0.10;;;21.60;50.80;;;;;;4931037;29;20588;-45
2021/10/13 06:26:20;;;;;;;0.10;0.10;;;21.60;50.90;;;;;;4931035;29;20051;-45
2021/10/13 06:28:47;;;;;;;4.70;0.20;;;21.60;51.00;;;;;;4927324;29;20480;-46
2021/10/13 06:31:16;;;;;;;2.05;0.13;;;21.50;51.00;;;;;;4930179;29;20044;-46
2021/10/13 06:33:44;;;;;;;0.52;0.30;;;21.60;51.00;;;;;;4928356;29;20055;-46
2021/10/13 06:36:11;;;;;;;0.57;0.15;;;21.50;51.00;;;;;;4929706;29;20046;-47
2021/10/13 06:38:38;;;;;;;4.68;0.38;;;21.60;51.10;;;;;;4929107;29;20054;-49
2021/10/13 06:41:09;;;;;;;1.23;0.38;;;21.60;51.10;;;;;;4926724;29;20134;-40
2021/10/13 06:43:36;;;;;;;4.32;0.30;;;21.50;51.30;;;;;;4927558;29;20123;-41
2021/10/13 06:46:04;;;;;;;2.85;0.50;;;21.50;52.40;;;;;;4927045;29;20123;-47
2021/10/13 06:48:33;;;;;;;1.05;0.10;;;21.50;52.20;;;;;;4916321;29;20044;-49
2021/10/13 06:51:00;;;;;;;2.38;0.22;;;21.60;52.10;;;;;;4924029;29;20040;-48
2021/10/13 06:53:27;;;;;;;0.52;0.10;;;21.60;52.30;;;;;;4926471;29;20044;-48
2021/10/13 06:55:55;;;;;;;1.05;0.10;;;21.60;52.50;;;;;;4920344;29;20041;-49
2021/10/13 06:58:23;;;;;;;3.95;0.20;;;21.60;52.60;;;;;;4916210;29;20156;-46
2021/10/13 07:00:50;;;;;;;5.32;0.65;;;21.60;52.50;;;;;;4899441;29;20433;-47
2021/10/13 07:03:17;;;;;;;5.93;2.13;;;21.60;52.30;;;;;;4914110;29;20713;-47
2021/10/13 07:05:45;;;;;;;8.50;1.00;;;21.60;53.10;;;;;;4914417;29;20044;-48
2021/10/13 07:08:12;;;;;;;9.23;1.00;;;21.60;55.00;;;;;;4915449;29;20095;-46
2021/10/13 07:10:40;;;;;;;6.35;0.40;;;21.60;56.00;;;;;;4915534;29;20521;-44
2021/10/13 07:13:07;;;;;;;9.63;1.38;;;21.60;56.70;;;;;;4918924;29;20058;-42
2021/10/13 07:15:34;;;;;;;7.03;1.70;;;21.70;56.90;;;;;;4927094;29;20052;-43
2021/10/13 07:18:02;;;;;;;13.70;0.80;;;21.70;57.00;;;;;;4917594;29;20853;-42
2021/10/13 07:20:30;;;;;;;5.78;0.93;;;21.70;57.00;;;;;;4916403;29;20048;-42
2021/10/13 07:22:58;;;;;;;3.72;1.05;;;21.70;56.90;;;;;;4920830;29;20043;-42
2021/10/13 07:25:27;;;;;;;10.75;1.13;;;21.70;56.70;;;;;;4923913;29;20052;-45
2021/10/13 07:27:54;;;;;;;3.63;0.70;;;21.70;57.20;;;;;;4915682;29;20048;-41
2021/10/13 07:30:24;;;;;;;7.05;0.57;;;21.70;56.40;;;;;;4913886;29;20123;-43
2021/10/13 07:32:52;;;;;;;6.25;1.10;;;21.70;56.30;;;;;;4914381;29;20052;-43
2021/10/13 07:35:20;;;;;;;5.93;0.50;;;21.70;56.20;;;;;;4915793;29;20421;-42
2021/10/13 07:37:47;;;;;;;7.03;0.73;;;21.60;56.60;;;;;;4915900;29;20059;-42
2021/10/13 07:40:16;;;;;;;3.17;0.50;;;21.70;56.00;;;;;;4898696;29;20588;-43
2021/10/13 07:42:43;;;;;;;4.68;0.98;;;21.70;55.90;;;;;;4915667;29;20040;-43
2021/10/13 07:45:11;;;;;;;2.25;0.52;;;21.70;55.80;;;;;;4912721;29;20139;-43
2021/10/13 07:47:38;;;;;;;10.45;0.93;;;21.70;55.70;;;;;;4915497;29;20117;-43
2021/10/13 07:50:07;;;;;;;10.27;0.80;;;21.60;55.50;;;;;;4915486;29;20520;-51
2021/10/13 07:52:34;;;;;;;5.32;0.38;;;21.70;55.50;;;;;;4917532;29;20058;-43
2021/10/13 07:55:01;;;;;;;3.40;0.63;;;21.60;55.30;;;;;;4926955;29;20043;-44
2021/10/13 07:57:29;;;;;;;5.43;1.33;;;21.60;55.20;;;;;;4915078;29;20036;-44
2021/10/13 07:59:56;;;;;;;4.20;0.45;;;21.60;55.10;;;;;;4912611;29;20052;-42
2021/10/13 08:02:24;;;;;;;4.40;0.20;;;21.60;55.00;;;;;;4898416;29;20048;-42
2021/10/13 08:04:51;;;;;;;5.80;0.43;;;21.60;54.90;;;;;;4915551;29;20055;-44
2021/10/13 08:07:18;;;;;;;6.78;0.65;;;21.60;54.80;;;;;;4914381;29;20127;-42
2021/10/13 08:09:45;;;;;;;2.60;0.52;;;21.60;54.70;;;;;;4915217;29;20036;-42
2021/10/13 08:12:13;;;;;;;2.00;0.43;;;21.60;54.60;;;;;;4913109;29;20139;-42
2021/10/13 08:14:41;;;;;;;1.90;0.45;;;21.60;54.50;;;;;;4914606;29;20036;-41
2021/10/13 08:17:10;;;;;;;3.17;0.85;;;21.70;54.50;;;;;;4915312;29;20453;-42
2021/10/13 08:19:38;;;;;;;0.95;0.38;;;21.70;54.30;;;;;;4915257;29;20040;-42
2021/10/13 08:22:05;;;;;;;6.18;0.35;;;21.70;54.20;;;;;;4915535;29;20051;-44
2021/10/13 08:24:32;;;;;;;3.25;0.50;;;21.70;54.20;;;;;;4928653;29;20056;-42
2021/10/13 08:26:59;;;;;;;4.88;0.75;;;21.60;54.00;;;;;;4927510;29;20043;-42
2021/10/13 08:29:26;;;;;;;4.50;0.88;;;21.70;53.90;;;;;;4914879;29;20044;-43
2021/10/13 08:31:55;;;;;;;0.63;0.50;;;21.60;53.70;;;;;;4914847;29;20083;-44
2021/10/13 08:34:22;;;;;;;2.40;0.60;;;21.60;53.70;;;;;;4915399;29;20039;-43
2021/10/13 08:36:49;;;;;;;2.10;0.68;;;21.70;53.60;;;;;;4915145;29;20035;-43
2021/10/13 08:39:16;;;;;;;0.82;0.50;;;21.70;53.60;;;;;;4913453;29;20075;-45
2021/10/13 08:41:43;;;;;;;0.50;0.20;;;21.70;53.40;;;;;;4916377;29;20048;-43
2021/10/13 08:44:12;;;;;;;3.42;0.50;;;21.70;53.30;;;;;;4914661;29;20048;-43
2021/10/13 08:46:40;;;;;;;0.80;0.32;;;21.70;53.20;;;;;;4914855;29;20056;-43
2021/10/13 08:49:09;;;;;;;3.00;0.43;;;21.70;53.10;;;;;;4914681;29;20592;-43
2021/10/13 08:51:38;;;;;;;2.90;0.47;;;21.70;53.00;;;;;;4914842;29;20062;-43
2021/10/13 08:54:06;;;;;;;1.70;0.63;;;21.70;52.90;;;;;;4925673;29;20136;-43
2021/10/13 08:56:34;;;;;;;4.47;0.65;;;21.70;52.80;;;;;;4914814;29;20059;-43
2021/10/13 08:59:01;;;;;;;2.25;0.95;;;21.60;52.70;;;;;;4914703;29;20046;-43
2021/10/13 09:01:28;;;;;;;4.07;0.73;;;21.70;52.70;;;;;;4914934;29;20097;-45
2021/10/13 09:04:00;;;;;;;2.50;0.73;;;21.70;52.60;;;;;;4914963;29;20135;-42
2021/10/13 09:06:29;;;;;;;5.60;0.80;;;21.70;52.50;;;;;;4922098;29;20115;-43
2021/10/13 09:09:03;;;;;;;3.60;0.90;;;21.70;52.30;;;;;;4912526;29;20576;-43
2021/10/13 09:11:36;;;;;;;1.08;0.45;;;21.70;52.30;;;;;;4915833;29;20044;-45
2021/10/13 09:14:13;;;;;;;5.90;0.90;;;21.70;52.20;;;;;;4915185;29;20040;-43
2021/10/13 09:16:53;;;;;;;1.00;0.85;;;21.70;52.10;;;;;;4914762;29;20048;-43
2021/10/13 09:19:22;;;;;;;2.20;0.60;;;21.80;52.00;;;;;;4913535;29;20048;-44
2021/10/13 09:21:53;;;;;;;1.30;0.32;;;21.80;52.00;;;;;;4921677;29;20469;-43
2021/10/13 09:24:21;;;;;;;3.08;0.98;;;21.80;51.80;;;;;;4930161;29;20063;-43
2021/10/13 09:26:48;;;;;;;1.33;0.55;;;21.80;51.70;;;;;;4916746;29;20048;-42
2021/10/13 09:29:15;;;;;;;2.65;0.57;;;21.80;51.60;;;;;;4917989;29;20127;-42
2021/10/13 09:31:43;;;;;;;1.38;0.60;;;21.80;51.40;;;;;;4917925;29;20044;-43
2021/10/13 09:34:12;;;;;;;3.45;0.60;;;21.80;51.30;;;;;;4917870;29;20129;-43
2021/10/13 09:36:41;;;;;;;5.00;1.13;;;21.80;51.20;;;;;;4917955;29;20062;-44
2021/10/13 09:39:16;;;;;;;2.28;0.55;;;21.80;51.70;;;;;;4914994;29;20071;-46
2021/10/13 09:42:03;;;;;;;1.40;0.30;;;21.90;51.00;;;;;;4919388;29;20041;-44
2021/10/13 09:44:33;;;;;;;2.15;0.65;;;21.90;50.90;;;;;;4917826;29;20075;-42
2021/10/13 09:47:02;;;;;;;4.93;1.27;;;21.80;50.80;;;;;;4917890;29;20042;-43
2021/10/13 09:49:33;;;;;;;1.63;0.40;;;21.90;50.70;;;;;;4917777;29;20037;-42
2021/10/13 09:52:09;;;;;;;1.98;0.20;;;21.90;50.50;;;;;;4917603;29;20122;-43
2021/10/13 09:54:37;;;;;;;;;;;21.90;50.30;;;;;;4931625;29;20040;-42
2021/10/13 09:57:24;;;;;;;0.93;0.52;;;21.90;50.50;;;;;;4914749;29;20131;-42
2021/10/13 09:59:59;;;;;;;4.55;0.57;;;21.80;50.30;;;;;;4915887;29;20080;-42
2021/10/13 10:02:31;;;;;;;2.58;0.30;;;21.90;50.10;;;;;;4917727;29;20044;-42
2021/10/13 10:05:02;;;;;;;2.08;0.25;;;21.90;50.10;;;;;;4917552;29;20043;-42
2021/10/13 10:07:31;;;;;;;3.33;0.47;;;21.90;50.00;;;;;;4917498;29;20052;-42
2021/10/13 10:10:11;;;;;;;3.22;0.70;;;21.90;49.80;;;;;;4916634;29;20415;-43
2021/10/13 10:12:57;;;;;;;1.08;0.40;;;22.00;49.60;;;;;;4917463;29;20516;-42
2021/10/13 10:15:30;;;;;;;1.77;0.88;;;22.00;49.50;;;;;;4916479;29;20044;-43
2021/10/13 10:17:58;;;;;;;1.20;0.55;;;22.00;49.50;;;;;;4915195;29;20044;-44
2021/10/13 10:20:36;;;;;;;3.28;0.45;;;22.00;49.40;;;;;;4917688;29;20131;-42
2021/10/13 10:23:26;;;;;;;1.95;0.85;;;22.00;49.00;;;;;;4922685;29;20063;-42
2021/10/13 10:25:56;;;;;;;2.78;0.75;;;22.10;49.00;;;;;;4921634;29;20047;-43
2021/10/13 10:28:55;;;;;;;4.15;0.40;;;22.00;49.00;;;;;;4916841;29;20048;-43
2021/10/13 10:31:39;;;;;;;2.30;0.80;;;22.10;48.90;;;;;;4916521;29;20685;-42
2021/10/13 10:34:16;;;;;;;0.70;0.30;;;22.10;48.70;;;;;;4916933;29;20048;-43
2021/10/13 10:37:11;;;;;;;3.00;0.35;;;22.10;48.70;;;;;;4917265;29;20826;-44
2021/10/13 10:39:57;;;;;;;1.20;0.40;;;22.10;48.60;;;;;;4913268;29;20414;-43
2021/10/13 10:42:46;;;;;;;1.65;0.35;;;22.10;48.60;;;;;;4912124;29;20175;-43
2021/10/13 10:45:16;;;;;;;2.38;0.65;;;22.20;48.60;;;;;;4928228;29;20040;-41
2021/10/13 10:47:54;;;;;;;2.85;0.45;;;22.10;48.50;;;;;;4918431;29;20138;-42
2021/10/13 10:50:32;;;;;;;2.85;0.30;;;22.20;48.50;;;;;;4916542;29;20048;-42
2021/10/13 10:53:33;;;;;;;4.05;0.43;;;22.20;48.30;;;;;;4921535;29;20055;-42
2021/10/13 10:56:27;;;;;;;2.38;0.20;;;22.20;48.20;;;;;;4920209;29;20189;-42
2021/10/13 10:59:07;;;;;;;3.42;0.28;;;22.30;48.20;;;;;;4916964;29;20052;-43
2021/10/13 11:01:36;;;;;;;1.40;0.20;;;22.30;48.00;;;;;;4916156;29;20048;-42
2021/10/13 11:04:09;;;;;;;3.47;0.30;;;22.30;48.00;;;;;;4916614;29;20067;-44
2021/10/13 11:06:38;;;;;;;3.92;0.55;;;22.30;47.90;;;;;;4916271;29;20038;-42
2021/10/13 11:09:07;;;;;;;2.22;0.80;;;22.30;48.40;;;;;;4913694;29;20365;-42
2021/10/13 11:11:36;;;;;;;2.72;0.32;;;22.40;47.70;;;;;;4916603;29;20040;-41
2021/10/13 11:14:08;;;;;;;2.58;0.38;;;22.40;47.60;;;;;;4919016;29;20054;-42
2021/10/13 11:16:37;;;;;;;3.97;0.30;;;22.50;47.40;;;;;;4925127;29;20058;-42
2021/10/13 11:19:09;;;;;;;1.48;0.20;;;22.50;47.30;;;;;;4916256;29;20071;-43
2021/10/13 11:21:36;;;;;;;2.80;0.40;;;22.60;47.20;;;;;;4913134;29;20055;-42
2021/10/13 11:24:04;;;;;;;1.17;0.20;;;22.60;47.10;;;;;;4930333;29;20563;-43
2021/10/13 11:26:31;;;;;;;1.42;0.20;;;22.60;47.00;;;;;;4913150;29;20735;-43
2021/10/13 11:28:58;;;;;;;4.57;0.55;;;22.60;46.90;;;;;;4912025;29;20124;-43
2021/10/13 11:31:27;;;;;;;1.98;0.50;;;22.60;46.80;;;;;;4915915;29;20052;-43
2021/10/13 11:34:08;;;;;;;2.83;0.40;;;22.70;46.80;;;;;;4915759;29;20048;-43
2021/10/13 11:36:48;;;;;;;3.53;1.02;;;22.70;46.70;;;;;;4915345;29;20146;-43
2021/10/13 11:39:19;;;;;;;4.47;0.35;;;22.70;46.60;;;;;;4913611;29;20067;-42
2021/10/13 11:41:47;;;;;;;2.35;0.63;;;22.70;46.60;;;;;;4914722;29;20040;-41
2021/10/13 11:44:17;;;;;;;9.15;0.50;;;22.70;46.50;;;;;;4914657;29;20123;-43
2021/10/13 11:46:56;;;;;;;4.30;1.17;;;22.70;46.40;;;;;;4915458;29;20044;-44
2021/10/13 11:49:24;;;;;;;0.43;0.43;;;22.80;46.30;;;;;;4915206;29;20130;-42
2021/10/13 11:52:11;;;;;;;3.55;0.32;;;22.70;46.30;;;;;;4915128;29;20071;-43
2021/10/13 11:54:39;;;;;;;3.40;0.50;;;22.70;46.20;;;;;;4929169;29;20103;-42
2021/10/13 11:57:07;;;;;;;1.83;0.60;;;22.70;46.10;;;;;;4912257;29;20264;-44
2021/10/13 11:59:34;;;;;;;3.03;1.02;;;22.70;46.10;;;;;;4915388;29;20111;-42
2021/10/13 12:02:17;;;;;;;4.28;0.20;;;22.80;46.00;;;;;;4915170;29;20117;-42
2021/10/13 12:04:53;;;;;;;2.53;0.20;;;22.70;45.90;;;;;;4914824;29;20083;-41
2021/10/13 12:07:22;;;;;;;1.23;0.60;;;22.70;45.80;;;;;;4915726;29;20107;-41
2021/10/13 12:09:58;;;;;;;1.00;0.43;;;22.70;45.70;;;;;;4915348;29;20784;-42
2021/10/13 12:12:28;;;;;;;4.97;0.57;;;22.70;45.70;;;;;;4914756;29;20477;-41
2021/10/13 12:14:56;;;;;;;1.85;0.40;;;22.70;45.70;;;;;;4912916;29;20473;-43
2021/10/13 12:17:26;;;;;;;5.38;0.43;;;22.70;45.70;;;;;;4915449;29;20040;-42
2021/10/13 12:19:54;;;;;;;4.43;0.38;;;22.80;45.70;;;;;;4914615;29;20206;-42
2021/10/13 12:22:21;;;;;;;1.90;0.20;;;22.80;45.70;;;;;;4915563;29;20040;-43
2021/10/13 12:24:48;;;;;;;1.20;1.10;;;22.80;45.70;;;;;;4928292;29;20111;-42
2021/10/13 12:27:27;;;;;;;2.28;0.30;;;22.90;45.70;;;;;;4913082;29;20052;-44
2021/10/13 12:29:54;;;;;;;1.45;0.30;;;23.00;46.20;;;;;;4913234;29;20067;-43
2021/10/13 12:32:25;;;;;;;2.33;0.35;;;23.00;45.50;;;;;;4914874;29;20050;-42
2021/10/13 12:34:53;;;;;;;0.85;0.20;;;23.00;45.40;;;;;;4914321;29;20501;-42
2021/10/13 12:37:24;;;;;;;0.30;0.20;;;23.00;45.30;;;;;;4913671;29;20058;-42
2021/10/13 12:39:51;;;;;;;2.35;0.30;;;23.10;45.30;;;;;;4914820;29;20075;-43
2021/10/13 12:42:23;;;;;;;6.57;0.20;;;23.10;45.20;;;;;;4912662;29;20047;-43
2021/10/13 12:44:58;;;;;;;2.35;0.13;;;23.20;45.20;;;;;;4913515;29;20060;-43
2021/10/13 12:47:28;;;;;;;4.25;0.47;;;23.20;45.10;;;;;;4914505;29;20050;-43
2021/10/13 12:49:57;;;;;;;1.75;0.20;;;23.20;45.00;;;;;;4914004;29;20043;-43
2021/10/13 12:52:27;;;;;;;0.98;0.60;;;23.30;44.90;;;;;;4915677;29;20549;-42
2021/10/13 12:54:56;;;;;;;2.63;0.43;;;23.30;44.80;;;;;;4929142;29;20099;-42
2021/10/13 12:57:25;;;;;;;1.75;0.63;;;23.30;44.70;;;;;;4917379;29;20048;-43
2021/10/13 12:59:52;;;;;;;0.65;0.28;;;23.40;44.70;;;;;;4916948;29;20048;-42
2021/10/13 13:02:19;;;;;;;1.15;0.20;;;23.40;44.70;;;;;;4918318;29;20047;-42